createdAt,value
2022-08-17T00:00:42.790Z,3.97
2022-08-17T00:03:15.614Z,4.05
2022-08-17T00:05:49.462Z,4.60
2022-08-17T00:08:22.274Z,4.55
2022-08-17T00:10:50.867Z,4.63
2022-08-17T00:16:05.612Z,4.80
2022-08-17T00:19:02.418Z,4.78
2022-08-17T00:21:25.377Z,4.90
2022-08-17T00:23:55.503Z,4.78
2022-08-17T00:26:43.578Z,5.07
2022-08-17T00:29:19.347Z,4.70
2022-08-17T00:31:48.395Z,4.45
2022-08-17T00:34:16.713Z,4.45
2022-08-17T00:36:44.775Z,4.28
2022-08-17T00:39:14.146Z,4.10
2022-08-17T00:41:42.758Z,4.20
2022-08-17T00:44:12.238Z,4.18
2022-08-17T00:46:43.869Z,4.70
2022-08-17T00:49:13.769Z,4.50
2022-08-17T00:51:46.552Z,4.28
2022-08-17T00:54:20.191Z,4.80
2022-08-17T00:56:55.029Z,4.90
2022-08-17T00:59:26.931Z,4.82
2022-08-17T01:01:55.122Z,4.70
2022-08-17T01:04:24.488Z,4.30
2022-08-17T01:06:53.110Z,4.47
2022-08-17T01:09:22.614Z,4.20
2022-08-17T01:11:52.338Z,4.40
2022-08-17T01:14:21.498Z,5.00
2022-08-17T01:16:51.656Z,4.15
2022-08-17T01:19:23.310Z,4.60
2022-08-17T01:21:56.116Z,4.93
2022-08-17T01:24:25.726Z,4.72
2022-08-17T01:26:53.791Z,5.10
2022-08-17T01:29:25.429Z,4.50
2022-08-17T01:31:57.699Z,5.05
2022-08-17T01:34:28.252Z,4.57
2022-08-17T01:37:11.667Z,4.28
2022-08-17T01:39:45.553Z,4.43
2022-08-17T01:42:21.561Z,4.70
2022-08-17T01:44:50.818Z,4.90
2022-08-17T01:47:18.866Z,4.75
2022-08-17T01:49:47.582Z,4.35
2022-08-17T01:52:16.511Z,4.07
2022-08-17T01:54:48.975Z,4.20
2022-08-17T01:57:17.004Z,4.68
2022-08-17T01:59:45.061Z,4.63
2022-08-17T02:02:13.065Z,4.45
2022-08-17T02:04:59.755Z,4.75
2022-08-17T02:07:27.943Z,4.68
2022-08-17T02:09:57.619Z,4.93
2022-08-17T02:12:37.839Z,4.32
2022-08-17T02:15:12.325Z,4.55
2022-08-17T02:17:41.587Z,4.68
2022-08-17T02:20:11.226Z,4.70
2022-08-17T02:22:42.452Z,4.95
2022-08-17T02:25:14.364Z,4.80
2022-08-17T02:27:42.418Z,4.90
2022-08-17T02:30:59.655Z,4.70
2022-08-17T02:33:04.185Z,5.18
2022-08-17T02:35:34.365Z,4.60
2022-08-17T02:38:02.492Z,4.53
2022-08-17T02:40:36.206Z,4.45
2022-08-17T02:43:05.199Z,4.30
2022-08-17T02:45:33.333Z,4.93
2022-08-17T02:48:01.381Z,4.32
2022-08-17T02:50:29.484Z,4.47
2022-08-17T02:53:02.458Z,4.90
2022-08-17T02:55:34.853Z,4.95
2022-08-17T02:58:03.740Z,4.70
2022-08-17T03:00:34.331Z,4.75
2022-08-17T03:03:04.093Z,4.72
2022-08-17T03:05:33.865Z,4.68
2022-08-17T03:08:02.010Z,4.75
2022-08-17T03:10:31.115Z,5.28
2022-08-17T03:13:01.606Z,5.18
2022-08-17T03:15:33.459Z,5.00
2022-08-17T03:18:03.687Z,4.68
2022-08-17T03:20:34.045Z,5.28
2022-08-17T03:23:03.158Z,4.80
2022-08-17T03:25:33.377Z,4.78
2022-08-17T03:28:04.724Z,4.85
2022-08-17T03:30:33.106Z,4.95
2022-08-17T03:33:03.476Z,5.50
2022-08-17T03:35:34.877Z,5.15
2022-08-17T03:38:03.054Z,4.90
2022-08-17T03:40:55.622Z,5.53
2022-08-17T03:43:22.944Z,5.10
2022-08-17T03:46:11.039Z,5.20
2022-08-17T03:49:14.533Z,5.45
2022-08-17T03:52:00.087Z,5.75
2022-08-17T03:54:45.628Z,5.28
2022-08-17T03:57:14.311Z,5.03
2022-08-17T03:59:45.044Z,4.97
2022-08-17T04:02:19.196Z,4.90
2022-08-17T04:04:50.748Z,6.22
2022-08-17T04:07:19.568Z,5.82
2022-08-17T04:09:47.723Z,5.40
2022-08-17T04:12:16.874Z,5.70
2022-08-17T04:14:51.856Z,5.75
2022-08-17T04:17:23.841Z,5.22
2022-08-17T04:19:51.984Z,4.88
2022-08-17T04:22:30.626Z,5.35
2022-08-17T04:25:06.460Z,5.43
2022-08-17T04:27:34.604Z,5.50
2022-08-17T04:30:06.989Z,6.45
2022-08-17T04:33:02.905Z,5.78
2022-08-17T04:35:38.464Z,5.50
2022-08-17T04:38:07.321Z,5.45
2022-08-17T04:40:53.476Z,5.25
2022-08-17T04:43:23.658Z,5.38
2022-08-17T04:45:57.017Z,5.85
2022-08-17T04:48:35.625Z,5.60
2022-08-17T04:51:07.173Z,5.38
2022-08-17T04:53:35.238Z,5.40
2022-08-17T04:56:03.641Z,5.10
2022-08-17T04:58:31.696Z,6.05
2022-08-17T05:01:01.381Z,5.50
2022-08-17T05:03:29.776Z,5.32
2022-08-17T05:05:57.884Z,5.18
2022-08-17T05:08:25.948Z,5.60
2022-08-17T05:10:54.071Z,5.43
2022-08-17T05:13:25.004Z,5.20
2022-08-17T05:15:56.600Z,5.93
2022-08-17T05:18:26.783Z,5.05
2022-08-17T05:20:55.303Z,5.57
2022-08-17T05:23:25.387Z,6.20
2022-08-17T05:25:56.356Z,6.00
2022-08-17T05:28:27.646Z,5.60
2022-08-17T05:31:00.209Z,6.22
2022-08-17T05:33:31.723Z,6.53
2022-08-17T05:36:00.850Z,5.60
2022-08-17T05:38:30.758Z,6.15
2022-08-17T05:40:59.760Z,6.03
2022-08-17T05:43:30.014Z,6.53
2022-08-17T05:46:04.169Z,7.55
2022-08-17T05:48:39.916Z,5.63
2022-08-17T05:51:33.009Z,5.65
2022-08-17T05:54:10.863Z,5.80
2022-08-17T05:57:00.996Z,6.05
2022-08-17T05:59:36.560Z,5.95
2022-08-17T06:02:16.712Z,5.45
2022-08-17T06:05:01.625Z,5.70
2022-08-17T06:07:35.972Z,6.03
2022-08-17T06:10:09.849Z,5.72
2022-08-17T06:12:47.633Z,5.90
2022-08-17T06:15:26.371Z,5.75
2022-08-17T06:17:58.732Z,6.53
2022-08-17T06:20:33.253Z,5.97
2022-08-17T06:23:07.001Z,6.55
2022-08-17T06:25:39.168Z,6.80
2022-08-17T06:28:25.220Z,6.97
2022-08-17T06:38:40.175Z,6.95
2022-08-17T06:55:37.915Z,6.68
2022-08-17T06:58:12.403Z,6.60
2022-08-17T07:00:47.681Z,5.78
2022-08-17T07:03:21.530Z,6.60
2022-08-17T07:06:06.520Z,6.55
2022-08-17T07:08:48.359Z,6.45
2022-08-17T07:11:27.272Z,6.38
2022-08-17T07:14:05.217Z,6.25
2022-08-17T07:16:41.151Z,6.47
2022-08-17T07:19:11.351Z,6.60
2022-08-17T07:30:16.428Z,5.85
2022-08-17T07:32:48.859Z,6.40
2022-08-17T07:35:23.276Z,6.22
2022-08-17T07:38:24.973Z,5.45
2022-08-17T07:41:03.557Z,6.22
2022-08-17T07:43:35.383Z,5.30
2022-08-17T07:46:36.250Z,5.97
2022-08-17T07:49:24.526Z,5.82
2022-08-17T07:52:13.412Z,5.60
2022-08-17T07:54:48.350Z,5.70
2022-08-17T07:57:31.904Z,5.40
2022-08-17T08:00:26.703Z,5.38
2022-08-17T08:03:27.223Z,5.45
2022-08-17T08:06:00.281Z,5.80
2022-08-17T08:08:33.544Z,5.20
2022-08-17T08:11:10.589Z,5.82
2022-08-17T08:13:45.133Z,5.78
2022-08-17T08:16:24.490Z,5.40
2022-08-17T08:18:58.081Z,4.95
2022-08-17T08:21:36.484Z,5.63
2022-08-17T08:24:23.187Z,5.50
2022-08-17T08:26:58.043Z,5.47
2022-08-17T08:29:37.954Z,5.72
2022-08-17T08:32:12.827Z,6.95
2022-08-17T08:35:02.490Z,5.85
2022-08-17T08:37:43.112Z,5.45
2022-08-17T08:40:25.376Z,5.13
2022-08-17T08:43:02.351Z,5.55
2022-08-17T08:45:39.293Z,5.28
2022-08-17T08:48:22.856Z,5.32
2022-08-17T08:51:15.719Z,5.30
2022-08-17T08:53:51.984Z,5.40
2022-08-17T08:56:28.715Z,5.35
2022-08-17T08:59:04.755Z,5.10
2022-08-17T09:01:47.027Z,5.07
2022-08-17T09:05:13.345Z,5.40
2022-08-17T09:07:56.289Z,4.80
2022-08-17T09:10:30.759Z,4.97
2022-08-17T09:13:10.215Z,5.28
2022-08-17T09:15:44.893Z,5.75
2022-08-17T09:19:02.280Z,5.10
2022-08-17T09:21:15.213Z,5.28
2022-08-17T09:23:59.664Z,5.43
2022-08-17T09:26:32.870Z,4.65
2022-08-17T09:29:06.568Z,4.78
2022-08-17T09:31:49.032Z,4.80
2022-08-17T09:34:29.522Z,4.78
2022-08-17T09:37:12.275Z,4.75
2022-08-17T09:39:47.647Z,4.38
2022-08-17T09:42:22.769Z,4.35
2022-08-17T09:44:59.263Z,4.20
2022-08-17T09:47:31.725Z,4.40
2022-08-17T09:50:07.031Z,4.22
2022-08-17T09:52:36.400Z,3.90
2022-08-17T09:55:07.354Z,3.80
2022-08-17T09:57:55.776Z,4.95
2022-08-17T10:00:28.039Z,4.15
2022-08-17T10:03:09.701Z,3.72
2022-08-17T10:05:46.490Z,4.32
2022-08-17T10:08:27.832Z,4.57
2022-08-17T10:11:22.506Z,4.05
2022-08-17T10:14:36.513Z,3.92
2022-08-17T10:17:04.490Z,4.47
2022-08-17T10:19:39.087Z,4.28
2022-08-17T10:22:37.943Z,4.53
2022-08-17T10:25:48.696Z,4.60
2022-08-17T10:28:28.845Z,4.43
2022-08-17T10:31:30.987Z,4.10
2022-08-17T10:34:00.621Z,4.20
2022-08-17T10:36:46.321Z,4.07
2022-08-17T10:39:26.375Z,4.38
2022-08-17T10:42:00.585Z,3.97
2022-08-17T10:44:42.399Z,4.25
2022-08-17T10:47:12.787Z,4.47
2022-08-17T10:49:47.465Z,4.57
2022-08-17T10:52:50.111Z,4.18
2022-08-17T10:55:20.425Z,3.95
2022-08-17T10:57:50.714Z,4.13
2022-08-17T11:01:12.550Z,4.75
2022-08-17T11:03:54.934Z,4.15
2022-08-17T11:06:33.230Z,3.85
2022-08-17T11:09:20.984Z,4.38
2022-08-17T11:12:15.773Z,4.63
2022-08-17T11:15:10.991Z,4.10
2022-08-17T11:17:53.630Z,4.75
2022-08-17T11:20:52.628Z,5.07
2022-08-17T11:23:48.357Z,4.72
2022-08-17T11:26:26.100Z,3.97
2022-08-17T11:28:59.551Z,4.05
2022-08-17T11:31:38.550Z,4.07
2022-08-17T11:34:15.148Z,3.90
2022-08-17T11:37:25.127Z,4.60
2022-08-17T11:40:33.878Z,3.72
2022-08-17T11:43:21.269Z,3.47
2022-08-17T11:46:11.991Z,4.13
2022-08-17T11:49:06.509Z,3.63
2022-08-17T11:52:10.063Z,3.80
2022-08-17T11:54:45.104Z,3.50
2022-08-17T11:58:01.584Z,3.38
2022-08-17T12:00:56.516Z,3.80
2022-08-17T12:03:54.426Z,3.45
2022-08-17T12:06:41.036Z,3.50
2022-08-17T12:09:14.832Z,3.50
2022-08-17T12:12:01.522Z,3.53
2022-08-17T12:15:06.229Z,3.58
2022-08-17T12:17:40.417Z,4.20
2022-08-17T12:20:15.064Z,3.90
2022-08-17T12:22:53.404Z,3.58
2022-08-17T12:25:25.793Z,4.05
2022-08-17T12:28:06.770Z,3.75
2022-08-17T12:30:38.383Z,3.60
2022-08-17T12:33:25.507Z,3.80
2022-08-17T12:36:02.985Z,3.40
2022-08-17T12:38:34.782Z,3.38
2022-08-17T12:41:25.366Z,3.17
2022-08-17T12:44:02.629Z,3.35
2022-08-17T12:46:35.906Z,3.03
2022-08-17T12:49:15.176Z,3.30
2022-08-17T12:51:47.936Z,2.97
2022-08-17T12:54:27.529Z,2.92
2022-08-17T12:56:55.925Z,2.75
2022-08-17T12:59:30.311Z,3.08
2022-08-17T13:02:00.921Z,3.15
2022-08-17T13:04:29.660Z,2.88
2022-08-17T13:06:59.878Z,3.22
2022-08-17T13:09:35.992Z,2.85
2022-08-17T13:12:09.493Z,2.95
2022-08-17T13:14:37.706Z,2.97
2022-08-17T13:17:13.326Z,2.60
2022-08-17T13:19:49.974Z,3.08
2022-08-17T13:22:23.167Z,2.88
2022-08-17T13:24:54.475Z,3.47
2022-08-17T13:27:25.063Z,2.97
2022-08-17T13:29:57.215Z,2.88
2022-08-17T13:32:39.905Z,2.80
2022-08-17T13:35:39.272Z,3.10
2022-08-17T13:38:10.596Z,3.35
2022-08-17T13:40:45.589Z,2.92
2022-08-17T13:43:13.697Z,2.95
2022-08-17T13:45:52.248Z,2.97
2022-08-17T13:48:32.583Z,3.00
2022-08-17T13:51:15.148Z,2.97
2022-08-17T13:53:55.952Z,2.97
2022-08-17T13:56:39.144Z,3.08
2022-08-17T13:59:11.261Z,3.33
2022-08-17T14:01:42.381Z,2.70
2022-08-17T14:04:13.991Z,3.30
2022-08-17T14:06:49.349Z,3.15
2022-08-17T14:09:23.201Z,3.00
2022-08-17T14:11:52.244Z,3.10
2022-08-17T14:14:23.164Z,2.85
2022-08-17T14:16:51.732Z,3.17
2022-08-17T14:19:22.884Z,3.20
2022-08-17T14:21:52.135Z,3.88
2022-08-17T14:24:24.817Z,3.35
2022-08-17T14:26:53.884Z,2.95
2022-08-17T14:29:23.237Z,3.33
2022-08-17T14:31:54.153Z,3.00
2022-08-17T14:34:25.290Z,3.25
2022-08-17T14:36:53.903Z,3.15
2022-08-17T14:39:22.182Z,2.88
2022-08-17T14:41:56.615Z,3.00
2022-08-17T14:44:24.812Z,2.92
2022-08-17T14:46:52.903Z,7.90
2022-08-17T14:49:20.907Z,17.55
2022-08-17T14:51:50.382Z,4.38
2022-08-17T14:54:33.957Z,3.80
2022-08-17T14:57:17.722Z,4.72
2022-08-17T14:59:54.680Z,4.75
2022-08-17T15:02:30.115Z,3.33
2022-08-17T15:05:01.741Z,2.80
2022-08-17T15:07:31.618Z,3.28
2022-08-17T15:10:01.578Z,3.15
2022-08-17T15:12:33.763Z,3.35
2022-08-17T15:15:32.160Z,2.72
2022-08-17T15:18:01.004Z,4.10
2022-08-17T15:20:30.740Z,3.53
2022-08-17T15:23:04.295Z,3.38
2022-08-17T15:25:33.873Z,3.20
2022-08-17T15:28:02.686Z,2.88
2022-08-17T15:30:31.667Z,3.47
2022-08-17T15:33:00.886Z,2.63
2022-08-17T15:35:32.159Z,3.47
2022-08-17T15:38:10.526Z,3.58
2022-08-17T15:40:41.324Z,3.10
2022-08-17T15:43:11.598Z,3.25
2022-08-17T15:45:40.887Z,3.15
2022-08-17T15:48:09.291Z,2.80
2022-08-17T15:50:37.997Z,2.95
2022-08-17T15:53:07.600Z,2.80
2022-08-17T15:55:38.292Z,3.97
2022-08-17T15:58:07.002Z,2.88
2022-08-17T16:00:48.848Z,3.33
2022-08-17T16:04:01.772Z,3.55
2022-08-17T16:06:13.716Z,3.22
2022-08-17T16:08:44.805Z,2.97
2022-08-17T16:11:13.888Z,3.10
2022-08-17T16:13:53.078Z,3.15
2022-08-17T16:16:24.270Z,6.15
2022-08-17T16:18:54.699Z,3.60
2022-08-17T16:21:27.101Z,2.90
2022-08-17T16:23:59.604Z,3.85
2022-08-17T16:26:28.310Z,3.55
2022-08-17T16:28:57.325Z,3.47
2022-08-17T16:31:26.051Z,10.27
2022-08-17T16:34:15.858Z,5.55
2022-08-17T16:36:54.657Z,3.28
2022-08-17T16:39:26.682Z,3.33
2022-08-17T16:41:55.666Z,3.60
2022-08-17T16:44:23.722Z,5.18
2022-08-17T16:46:51.805Z,3.58
2022-08-17T16:49:24.498Z,3.53
2022-08-17T16:52:05.243Z,3.80
2022-08-17T16:54:35.461Z,4.18
2022-08-17T16:57:05.093Z,3.30
2022-08-17T16:59:41.031Z,3.17
2022-08-17T17:02:14.032Z,3.72
2022-08-17T17:04:47.717Z,3.28
2022-08-17T17:07:39.861Z,3.17
2022-08-17T17:10:11.638Z,3.28
2022-08-17T17:13:02.472Z,3.78
2022-08-17T17:15:39.599Z,3.63
2022-08-17T17:18:12.185Z,4.00
2022-08-17T17:20:48.639Z,3.97
2022-08-17T17:23:29.124Z,3.60
2022-08-17T17:26:06.072Z,3.90
2022-08-17T17:28:44.138Z,3.42
2022-08-17T17:31:16.764Z,4.05
2022-08-17T17:33:48.283Z,3.42
2022-08-17T17:36:27.486Z,3.65
2022-08-17T17:39:01.351Z,4.72
2022-08-17T17:41:35.399Z,4.90
2022-08-17T17:44:09.042Z,4.30
2022-08-17T17:46:40.819Z,4.15
2022-08-17T17:49:10.599Z,4.05
2022-08-17T17:52:02.855Z,3.75
2022-08-17T17:54:53.978Z,4.32
2022-08-17T17:57:36.471Z,4.82
2022-08-17T18:00:17.881Z,4.20
2022-08-17T18:02:57.243Z,3.90
2022-08-17T18:05:48.363Z,3.47
2022-08-17T18:08:32.328Z,4.40
2022-08-17T18:11:11.451Z,4.15
2022-08-17T18:13:55.059Z,3.97
2022-08-17T18:16:23.677Z,4.47
2022-08-17T18:18:53.552Z,6.72
2022-08-17T18:21:24.830Z,4.72
2022-08-17T18:23:58.127Z,4.57
2022-08-17T18:26:42.042Z,4.03
2022-08-17T18:29:23.503Z,4.10
2022-08-17T18:32:18.059Z,3.53
2022-08-17T18:34:48.894Z,4.05
2022-08-17T18:37:42.609Z,4.50
2022-08-17T18:40:32.533Z,4.10
2022-08-17T18:43:08.263Z,3.95
2022-08-17T18:45:41.913Z,4.45
2022-08-17T18:48:20.844Z,4.43
2022-08-17T18:50:53.321Z,3.95
2022-08-17T18:53:35.414Z,4.43
2022-08-17T18:56:26.838Z,4.45
2022-08-17T18:59:17.277Z,3.95
2022-08-17T19:02:03.243Z,4.45
2022-08-17T19:04:38.190Z,4.25
2022-08-17T19:07:26.519Z,4.40
2022-08-17T19:09:59.374Z,4.47
2022-08-17T19:12:34.123Z,4.25
2022-08-17T19:15:03.569Z,4.70
2022-08-17T19:17:40.894Z,4.75
2022-08-17T19:20:16.860Z,4.40
2022-08-17T19:23:14.768Z,4.40
2022-08-17T19:25:48.441Z,4.30
2022-08-17T19:28:24.036Z,4.60
2022-08-17T19:30:57.539Z,4.53
2022-08-17T19:33:27.833Z,4.65
2022-08-17T19:36:06.887Z,4.07
2022-08-17T19:38:47.785Z,4.03
2022-08-17T19:41:23.600Z,4.55
2022-08-17T19:44:23.181Z,4.18
2022-08-17T19:47:00.861Z,4.20
2022-08-17T19:49:45.618Z,4.45
2022-08-17T19:52:41.457Z,4.45
2022-08-17T19:55:20.641Z,4.30
2022-08-17T19:58:00.311Z,4.90
2022-08-17T20:00:29.267Z,4.50
2022-08-17T20:03:06.105Z,4.65
2022-08-17T20:06:08.839Z,4.20
2022-08-17T20:08:30.790Z,4.80
2022-08-17T20:11:03.727Z,4.82
2022-08-17T20:13:37.483Z,4.55
2022-08-17T20:16:06.400Z,5.68
2022-08-17T20:18:44.483Z,4.43
2022-08-17T20:21:22.985Z,4.88
2022-08-17T20:23:55.086Z,4.93
2022-08-17T20:26:27.334Z,4.72
2022-08-17T20:29:39.564Z,4.60
2022-08-17T20:32:26.685Z,4.50
2022-08-17T20:35:20.853Z,4.50
2022-08-17T20:37:57.375Z,4.18
2022-08-17T20:40:30.072Z,4.40
2022-08-17T20:42:59.244Z,4.80
2022-08-17T20:45:55.376Z,4.57
2022-08-17T20:48:38.090Z,5.07
2022-08-17T20:51:28.181Z,5.13
2022-08-17T20:54:35.119Z,5.18
2022-08-17T20:57:06.112Z,5.13
2022-08-17T21:00:14.644Z,4.60
2022-08-17T21:02:44.754Z,5.13
2022-08-17T21:05:57.327Z,5.32
2022-08-17T21:08:30.628Z,5.15
2022-08-17T21:11:00.424Z,4.85
2022-08-17T21:13:54.789Z,5.43
2022-08-17T21:16:32.188Z,5.10
2022-08-17T21:19:22.120Z,4.72
2022-08-17T21:22:01.999Z,4.70
2022-08-17T21:24:54.030Z,5.20
2022-08-17T21:27:35.135Z,5.03
2022-08-17T21:30:42.692Z,5.10
2022-08-17T21:33:20.867Z,5.47
2022-08-17T21:35:52.334Z,4.82
2022-08-17T21:38:24.139Z,5.13
2022-08-17T21:40:55.152Z,4.68
2022-08-17T21:43:29.319Z,4.50
2022-08-17T21:46:02.766Z,4.78
2022-08-17T21:48:33.715Z,5.20
2022-08-17T21:51:10.549Z,4.85
2022-08-17T21:53:45.834Z,5.20
2022-08-17T21:56:24.625Z,5.40
2022-08-17T21:58:58.345Z,5.05
2022-08-17T22:01:30.704Z,4.88
2022-08-17T22:04:03.335Z,5.18
2022-08-17T22:06:38.054Z,5.07
2022-08-17T22:09:20.424Z,4.82
2022-08-17T22:11:58.706Z,5.20
2022-08-17T22:14:52.108Z,5.28
2022-08-17T22:17:22.534Z,4.75
2022-08-17T22:19:53.822Z,5.30
2022-08-17T22:22:30.167Z,5.22
2022-08-17T22:25:00.554Z,5.05
2022-08-17T22:27:54.459Z,5.45
2022-08-17T22:30:35.505Z,5.15
2022-08-17T22:33:37.214Z,5.20
2022-08-17T22:36:14.469Z,5.30
2022-08-17T22:38:43.795Z,5.38
2022-08-17T22:41:43.710Z,5.60
2022-08-17T22:44:23.258Z,5.88
2022-08-17T22:46:59.905Z,5.45
2022-08-17T22:49:32.888Z,5.65
2022-08-17T22:52:19.443Z,5.60
2022-08-17T22:55:09.194Z,5.72
2022-08-17T22:57:51.897Z,5.55
2022-08-17T23:00:33.505Z,5.50
2022-08-17T23:03:14.660Z,5.20
2022-08-17T23:05:47.619Z,5.32
2022-08-17T23:08:21.197Z,5.30
2022-08-17T23:10:50.329Z,5.72
2022-08-17T23:13:18.452Z,5.30
2022-08-17T23:15:48.166Z,5.28
2022-08-17T23:18:17.554Z,5.70
2022-08-17T23:20:47.390Z,5.60
2022-08-17T23:23:18.741Z,5.43
2022-08-17T23:25:49.374Z,5.40
2022-08-17T23:28:17.448Z,5.47
2022-08-17T23:30:47.993Z,5.70
2022-08-17T23:33:22.382Z,5.63
2022-08-17T23:35:52.113Z,5.78
2022-08-17T23:38:20.264Z,5.63
2022-08-17T23:40:48.373Z,6.15
2022-08-17T23:43:24.138Z,6.25
2022-08-17T23:45:55.032Z,5.50
2022-08-17T23:48:35.096Z,5.95
2022-08-17T23:51:09.564Z,5.95
2022-08-17T23:53:40.386Z,6.32
2022-08-17T23:56:11.091Z,6.00
2022-08-17T23:58:42.204Z,5.50
